sensor_id;sensor_type;location;lat;lon;timestamp;P1;durP1;ratioP1;P2;durP2;ratioP2
57643;SDS011;43474;46.510;6.686;2023-04-03T00:01:35;152.73;;;146.00;;
57643;SDS011;43474;46.510;6.686;2023-04-03T00:04:04;153.52;;;146.73;;
57643;SDS011;43474;46.510;6.686;2023-04-03T00:06:31;142.50;;;136.18;;
57643;SDS011;43474;46.510;6.686;2023-04-03T00:08:57;137.95;;;131.75;;
57643;SDS011;43474;46.510;6.686;2023-04-03T00:11:22;135.38;;;129.15;;
57643;SDS011;43474;46.510;6.686;2023-04-03T00:13:48;132.38;;;126.50;;
57643;SDS011;43474;46.510;6.686;2023-04-03T00:16:13;127.15;;;121.55;;
57643;SDS011;43474;46.510;6.686;2023-04-03T00:18:39;124.75;;;119.20;;
57643;SDS011;43474;46.510;6.686;2023-04-03T00:21:05;120.07;;;114.75;;
57643;SDS011;43474;46.510;6.686;2023-04-03T00:23:33;117.40;;;112.05;;
57643;SDS011;43474;46.510;6.686;2023-04-03T00:25:58;115.35;;;110.38;;
57643;SDS011;43474;46.510;6.686;2023-04-03T00:28:24;119.95;;;114.75;;
57643;SDS011;43474;46.510;6.686;2023-04-03T00:30:50;124.57;;;119.25;;
57643;SDS011;43474;46.510;6.686;2023-04-03T00:33:16;125.72;;;120.32;;
57643;SDS011;43474;46.510;6.686;2023-04-03T00:35:42;129.88;;;124.28;;
57643;SDS011;43474;46.510;6.686;2023-04-03T00:38:08;130.48;;;124.78;;
57643;SDS011;43474;46.510;6.686;2023-04-03T00:40:38;129.13;;;123.22;;
57643;SDS011;43474;46.510;6.686;2023-04-03T00:43:14;131.18;;;125.53;;
57643;SDS011;43474;46.510;6.686;2023-04-03T00:45:48;131.93;;;126.28;;
57643;SDS011;43474;46.510;6.686;2023-04-03T00:48:17;135.88;;;130.00;;
57643;SDS011;43474;46.510;6.686;2023-04-03T00:50:45;142.82;;;136.65;;
57643;SDS011;43474;46.510;6.686;2023-04-03T00:53:14;145.18;;;138.88;;
57643;SDS011;43474;46.510;6.686;2023-04-03T00:55:43;144.38;;;138.13;;
57643;SDS011;43474;46.510;6.686;2023-04-03T00:58:09;147.85;;;141.45;;
57643;SDS011;43474;46.510;6.686;2023-04-03T01:00:37;148.90;;;142.32;;
57643;SDS011;43474;46.510;6.686;2023-04-03T01:03:05;150.77;;;144.27;;
57643;SDS011;43474;46.510;6.686;2023-04-03T01:05:31;155.80;;;149.00;;
57643;SDS011;43474;46.510;6.686;2023-04-03T01:07:57;152.23;;;145.60;;
57643;SDS011;43474;46.510;6.686;2023-04-03T01:10:23;152.55;;;145.88;;
57643;SDS011;43474;46.510;6.686;2023-04-03T01:12:51;156.60;;;149.70;;
57643;SDS011;43474;46.510;6.686;2023-04-03T01:15:18;154.00;;;147.13;;
57643;SDS011;43474;46.510;6.686;2023-04-03T01:25:33;144.52;;;137.77;;
57643;SDS011;43474;46.510;6.686;2023-04-03T01:28:02;144.60;;;138.23;;
57643;SDS011;43474;46.510;6.686;2023-04-03T01:30:30;146.88;;;140.40;;
57643;SDS011;43474;46.510;6.686;2023-04-03T01:32:59;137.80;;;131.80;;
57643;SDS011;43474;46.510;6.686;2023-04-03T01:35:25;128.73;;;123.15;;
57643;SDS011;43474;46.510;6.686;2023-04-03T01:37:51;111.60;;;106.88;;
57643;SDS011;43474;46.510;6.686;2023-04-03T01:40:16;106.95;;;102.20;;
57643;SDS011;43474;46.510;6.686;2023-04-03T01:42:42;106.53;;;101.88;;
57643;SDS011;43474;46.510;6.686;2023-04-03T01:45:07;105.07;;;100.57;;
57643;SDS011;43474;46.510;6.686;2023-04-03T01:47:34;102.60;;;98.20;;
57643;SDS011;43474;46.510;6.686;2023-04-03T01:49:59;106.15;;;101.65;;
57643;SDS011;43474;46.510;6.686;2023-04-03T01:52:25;111.22;;;106.43;;
57643;SDS011;43474;46.510;6.686;2023-04-03T01:54:51;111.78;;;106.82;;
57643;SDS011;43474;46.510;6.686;2023-04-03T01:57:16;115.78;;;110.80;;
57643;SDS011;43474;46.510;6.686;2023-04-03T01:59:42;115.90;;;110.97;;
57643;SDS011;43474;46.510;6.686;2023-04-03T02:02:08;117.93;;;112.88;;
57643;SDS011;43474;46.510;6.686;2023-04-03T02:04:33;114.95;;;110.03;;
57643;SDS011;43474;46.510;6.686;2023-04-03T02:06:59;115.07;;;110.18;;
57643;SDS011;43474;46.510;6.686;2023-04-03T02:09:25;110.68;;;105.55;;
57643;SDS011;43474;46.510;6.686;2023-04-03T02:11:52;105.80;;;101.20;;
57643;SDS011;43474;46.510;6.686;2023-04-03T02:14:18;109.85;;;105.15;;
57643;SDS011;43474;46.510;6.686;2023-04-03T02:16:44;106.93;;;102.28;;
57643;SDS011;43474;46.510;6.686;2023-04-03T02:19:09;106.95;;;102.35;;
57643;SDS011;43474;46.510;6.686;2023-04-03T02:21:35;107.10;;;102.50;;
57643;SDS011;43474;46.510;6.686;2023-04-03T02:24:00;107.10;;;102.53;;
57643;SDS011;43474;46.510;6.686;2023-04-03T02:26:26;104.82;;;100.32;;
57643;SDS011;43474;46.510;6.686;2023-04-03T02:28:51;104.45;;;99.95;;
57643;SDS011;43474;46.510;6.686;2023-04-03T02:31:17;106.55;;;101.85;;
57643;SDS011;43474;46.510;6.686;2023-04-03T02:33:43;105.53;;;101.03;;
57643;SDS011;43474;46.510;6.686;2023-04-03T02:36:08;108.50;;;103.85;;
57643;SDS011;43474;46.510;6.686;2023-04-03T02:38:34;107.00;;;101.97;;
57643;SDS011;43474;46.510;6.686;2023-04-03T02:41:01;110.32;;;105.35;;
57643;SDS011;43474;46.510;6.686;2023-04-03T02:43:36;107.93;;;103.25;;
57643;SDS011;43474;46.510;6.686;2023-04-03T02:46:03;115.10;;;110.15;;
57643;SDS011;43474;46.510;6.686;2023-04-03T02:48:28;108.82;;;104.13;;
57643;SDS011;43474;46.510;6.686;2023-04-03T02:50:54;112.68;;;107.85;;
57643;SDS011;43474;46.510;6.686;2023-04-03T02:53:20;107.80;;;103.20;;
57643;SDS011;43474;46.510;6.686;2023-04-03T02:55:46;107.50;;;102.82;;
57643;SDS011;43474;46.510;6.686;2023-04-03T02:58:11;105.75;;;101.25;;
57643;SDS011;43474;46.510;6.686;2023-04-03T03:00:37;107.90;;;103.20;;
57643;SDS011;43474;46.510;6.686;2023-04-03T03:03:03;108.00;;;103.00;;
57643;SDS011;43474;46.510;6.686;2023-04-03T03:05:29;106.80;;;102.20;;
57643;SDS011;43474;46.510;6.686;2023-04-03T03:07:55;105.93;;;101.32;;
57643;SDS011;43474;46.510;6.686;2023-04-03T03:10:21;103.68;;;99.20;;
57643;SDS011;43474;46.510;6.686;2023-04-03T03:12:47;104.63;;;100.18;;
57643;SDS011;43474;46.510;6.686;2023-04-03T03:15:12;104.53;;;99.97;;
57643;SDS011;43474;46.510;6.686;2023-04-03T03:17:38;98.82;;;94.50;;
57643;SDS011;43474;46.510;6.686;2023-04-03T03:20:04;102.15;;;97.78;;
57643;SDS011;43474;46.510;6.686;2023-04-03T03:22:31;105.00;;;100.40;;
57643;SDS011;43474;46.510;6.686;2023-04-03T03:24:57;104.72;;;100.15;;
57643;SDS011;43474;46.510;6.686;2023-04-03T03:27:22;108.97;;;104.15;;
57643;SDS011;43474;46.510;6.686;2023-04-03T03:29:49;106.47;;;101.68;;
57643;SDS011;43474;46.510;6.686;2023-04-03T03:32:14;106.18;;;101.53;;
57643;SDS011;43474;46.510;6.686;2023-04-03T03:34:40;102.82;;;98.32;;
57643;SDS011;43474;46.510;6.686;2023-04-03T03:37:05;102.35;;;97.90;;
57643;SDS011;43474;46.510;6.686;2023-04-03T03:39:31;103.32;;;98.75;;
57643;SDS011;43474;46.510;6.686;2023-04-03T03:41:57;99.47;;;95.18;;
57643;SDS011;43474;46.510;6.686;2023-04-03T03:44:22;99.40;;;95.10;;
57643;SDS011;43474;46.510;6.686;2023-04-03T03:46:48;97.93;;;93.63;;
57643;SDS011;43474;46.510;6.686;2023-04-03T03:49:14;99.93;;;95.63;;
57643;SDS011;43474;46.510;6.686;2023-04-03T03:51:39;98.00;;;93.80;;
57643;SDS011;43474;46.510;6.686;2023-04-03T03:54:06;91.47;;;87.38;;
57643;SDS011;43474;46.510;6.686;2023-04-03T03:56:31;95.57;;;91.47;;
57643;SDS011;43474;46.510;6.686;2023-04-03T03:58:57;93.38;;;89.38;;
57643;SDS011;43474;46.510;6.686;2023-04-03T04:01:23;90.40;;;86.50;;
57643;SDS011;43474;46.510;6.686;2023-04-03T04:03:50;91.55;;;87.65;;
57643;SDS011;43474;46.510;6.686;2023-04-03T04:06:15;90.78;;;86.88;;
57643;SDS011;43474;46.510;6.686;2023-04-03T04:08:41;91.75;;;87.75;;
57643;SDS011;43474;46.510;6.686;2023-04-03T04:11:07;96.07;;;91.82;;
57643;SDS011;43474;46.510;6.686;2023-04-03T04:13:34;93.72;;;89.63;;
57643;SDS011;43474;46.510;6.686;2023-04-03T04:15:59;93.28;;;89.18;;
57643;SDS011;43474;46.510;6.686;2023-04-03T04:18:25;100.68;;;96.28;;
57643;SDS011;43474;46.510;6.686;2023-04-03T04:20:51;93.15;;;89.05;;
57643;SDS011;43474;46.510;6.686;2023-04-03T04:23:17;89.78;;;85.95;;
57643;SDS011;43474;46.510;6.686;2023-04-03T04:25:46;85.45;;;81.65;;
57643;SDS011;43474;46.510;6.686;2023-04-03T04:28:13;100.07;;;95.45;;
57643;SDS011;43474;46.510;6.686;2023-04-03T04:30:38;100.22;;;95.72;;
57643;SDS011;43474;46.510;6.686;2023-04-03T04:33:04;99.82;;;95.53;;
57643;SDS011;43474;46.510;6.686;2023-04-03T04:35:30;101.50;;;97.05;;
57643;SDS011;43474;46.510;6.686;2023-04-03T04:37:56;94.60;;;90.50;;
57643;SDS011;43474;46.510;6.686;2023-04-03T04:40:21;94.13;;;90.03;;
57643;SDS011;43474;46.510;6.686;2023-04-03T04:42:47;98.38;;;94.10;;
57643;SDS011;43474;46.510;6.686;2023-04-03T04:45:13;92.18;;;88.18;;
57643;SDS011;43474;46.510;6.686;2023-04-03T04:47:40;84.45;;;80.68;;
57643;SDS011;43474;46.510;6.686;2023-04-03T04:50:06;89.22;;;85.22;;
57643;SDS011;43474;46.510;6.686;2023-04-03T04:52:32;90.00;;;86.05;;
57643;SDS011;43474;46.510;6.686;2023-04-03T04:54:58;83.40;;;79.40;;
57643;SDS011;43474;46.510;6.686;2023-04-03T04:57:23;87.07;;;83.30;;
57643;SDS011;43474;46.510;6.686;2023-04-03T04:59:49;88.07;;;84.18;;
57643;SDS011;43474;46.510;6.686;2023-04-03T05:02:15;83.35;;;79.65;;
57643;SDS011;43474;46.510;6.686;2023-04-03T05:04:40;86.45;;;82.65;;
57643;SDS011;43474;46.510;6.686;2023-04-03T05:07:06;85.10;;;81.20;;
57643;SDS011;43474;46.510;6.686;2023-04-03T05:09:31;84.15;;;80.40;;
57643;SDS011;43474;46.510;6.686;2023-04-03T05:11:57;65.45;;;62.30;;
57643;SDS011;43474;46.510;6.686;2023-04-03T05:14:22;81.68;;;77.97;;
57643;SDS011;43474;46.510;6.686;2023-04-03T05:16:48;78.15;;;74.65;;
57643;SDS011;43474;46.510;6.686;2023-04-03T05:19:18;80.38;;;76.38;;
57643;SDS011;43474;46.510;6.686;2023-04-03T05:21:44;82.63;;;78.88;;
57643;SDS011;43474;46.510;6.686;2023-04-03T05:24:09;77.70;;;74.10;;
57643;SDS011;43474;46.510;6.686;2023-04-03T05:26:35;80.82;;;76.90;;
57643;SDS011;43474;46.510;6.686;2023-04-03T05:29:00;87.80;;;83.85;;
57643;SDS011;43474;46.510;6.686;2023-04-03T05:31:26;88.43;;;84.22;;
57643;SDS011;43474;46.510;6.686;2023-04-03T05:33:54;88.85;;;84.68;;
57643;SDS011;43474;46.510;6.686;2023-04-03T05:36:20;86.65;;;82.55;;
57643;SDS011;43474;46.510;6.686;2023-04-03T05:38:46;86.32;;;82.25;;
57643;SDS011;43474;46.510;6.686;2023-04-03T05:41:13;87.45;;;83.25;;
57643;SDS011;43474;46.510;6.686;2023-04-03T05:43:39;88.13;;;83.88;;
57643;SDS011;43474;46.510;6.686;2023-04-03T05:46:15;84.28;;;80.38;;
57643;SDS011;43474;46.510;6.686;2023-04-03T05:48:43;81.10;;;77.28;;
57643;SDS011;43474;46.510;6.686;2023-04-03T05:51:14;89.63;;;85.20;;
57643;SDS011;43474;46.510;6.686;2023-04-03T05:53:41;85.30;;;81.25;;
57643;SDS011;43474;46.510;6.686;2023-04-03T05:56:08;89.70;;;85.20;;
57643;SDS011;43474;46.510;6.686;2023-04-03T05:58:34;89.55;;;85.15;;
57643;SDS011;43474;46.510;6.686;2023-04-03T06:01:00;86.53;;;82.30;;
57643;SDS011;43474;46.510;6.686;2023-04-03T06:03:26;89.57;;;85.38;;
57643;SDS011;43474;46.510;6.686;2023-04-03T06:05:52;85.00;;;81.00;;
57643;SDS011;43474;46.510;6.686;2023-04-03T06:08:17;82.93;;;78.45;;
57643;SDS011;43474;46.510;6.686;2023-04-03T06:10:44;88.70;;;84.40;;
57643;SDS011;43474;46.510;6.686;2023-04-03T06:13:09;85.38;;;81.32;;
57643;SDS011;43474;46.510;6.686;2023-04-03T06:15:36;81.43;;;77.35;;
57643;SDS011;43474;46.510;6.686;2023-04-03T06:18:01;86.07;;;81.88;;
57643;SDS011;43474;46.510;6.686;2023-04-03T06:20:27;79.20;;;75.50;;
57643;SDS011;43474;46.510;6.686;2023-04-03T06:22:53;83.28;;;79.18;;
57643;SDS011;43474;46.510;6.686;2023-04-03T06:25:18;81.88;;;77.78;;
57643;SDS011;43474;46.510;6.686;2023-04-03T06:27:44;85.07;;;80.93;;
57643;SDS011;43474;46.510;6.686;2023-04-03T06:30:10;77.20;;;73.55;;
57643;SDS011;43474;46.510;6.686;2023-04-03T06:32:36;77.65;;;73.95;;
57643;SDS011;43474;46.510;6.686;2023-04-03T06:35:03;78.25;;;73.95;;
57643;SDS011;43474;46.510;6.686;2023-04-03T06:37:29;85.43;;;81.43;;
57643;SDS011;43474;46.510;6.686;2023-04-03T06:39:55;82.65;;;78.82;;
57643;SDS011;43474;46.510;6.686;2023-04-03T06:42:21;87.75;;;83.35;;
57643;SDS011;43474;46.510;6.686;2023-04-03T06:44:48;89.35;;;85.10;;
57643;SDS011;43474;46.510;6.686;2023-04-03T06:47:13;94.95;;;90.47;;
57643;SDS011;43474;46.510;6.686;2023-04-03T06:49:40;96.80;;;91.80;;
57643;SDS011;43474;46.510;6.686;2023-04-03T06:52:07;98.35;;;93.40;;
57643;SDS011;43474;46.510;6.686;2023-04-03T06:54:33;104.68;;;99.47;;
57643;SDS011;43474;46.510;6.686;2023-04-03T06:56:58;98.32;;;93.82;;
57643;SDS011;43474;46.510;6.686;2023-04-03T06:59:24;121.30;;;115.25;;
57643;SDS011;43474;46.510;6.686;2023-04-03T07:01:50;132.98;;;126.65;;
57643;SDS011;43474;46.510;6.686;2023-04-03T07:04:16;165.70;;;158.07;;
57643;SDS011;43474;46.510;6.686;2023-04-03T07:06:41;198.80;;;189.70;;
57643;SDS011;43474;46.510;6.686;2023-04-03T07:09:09;237.13;;;226.32;;
57643;SDS011;43474;46.510;6.686;2023-04-03T07:11:35;211.05;;;201.43;;
57643;SDS011;43474;46.510;6.686;2023-04-03T07:14:01;200.77;;;191.57;;
57643;SDS011;43474;46.510;6.686;2023-04-03T07:16:27;203.32;;;193.82;;
57643;SDS011;43474;46.510;6.686;2023-04-03T07:18:55;202.68;;;193.57;;
57643;SDS011;43474;46.510;6.686;2023-04-03T07:21:21;204.60;;;195.20;;
57643;SDS011;43474;46.510;6.686;2023-04-03T07:23:46;240.13;;;228.68;;
57643;SDS011;43474;46.510;6.686;2023-04-03T07:26:12;284.23;;;270.52;;
57643;SDS011;43474;46.510;6.686;2023-04-03T07:28:38;274.27;;;261.67;;
57643;SDS011;43474;46.510;6.686;2023-04-03T07:31:06;280.48;;;267.65;;
57643;SDS011;43474;46.510;6.686;2023-04-03T07:33:34;277.15;;;264.35;;
57643;SDS011;43474;46.510;6.686;2023-04-03T07:36:00;284.77;;;271.70;;
57643;SDS011;43474;46.510;6.686;2023-04-03T07:38:26;298.10;;;284.27;;
57643;SDS011;43474;46.510;6.686;2023-04-03T07:40:52;316.02;;;301.23;;
57643;SDS011;43474;46.510;6.686;2023-04-03T07:43:18;328.40;;;312.98;;
57643;SDS011;43474;46.510;6.686;2023-04-03T07:45:45;312.95;;;298.27;;
57643;SDS011;43474;46.510;6.686;2023-04-03T07:48:15;322.42;;;307.13;;
57643;SDS011;43474;46.510;6.686;2023-04-03T07:50:42;322.55;;;307.38;;
57643;SDS011;43474;46.510;6.686;2023-04-03T07:53:09;310.45;;;295.83;;
57643;SDS011;43474;46.510;6.686;2023-04-03T07:55:35;315.35;;;300.55;;
57643;SDS011;43474;46.510;6.686;2023-04-03T07:58:11;324.17;;;308.92;;
57643;SDS011;43474;46.510;6.686;2023-04-03T08:00:39;322.30;;;307.20;;
57643;SDS011;43474;46.510;6.686;2023-04-03T08:03:06;311.25;;;296.75;;
57643;SDS011;43474;46.510;6.686;2023-04-03T08:05:36;310.60;;;296.13;;
57643;SDS011;43474;46.510;6.686;2023-04-03T08:08:03;312.55;;;297.88;;
57643;SDS011;43474;46.510;6.686;2023-04-03T08:10:29;314.65;;;300.10;;
57643;SDS011;43474;46.510;6.686;2023-04-03T08:12:56;327.63;;;311.95;;
57643;SDS011;43474;46.510;6.686;2023-04-03T08:15:21;299.40;;;284.98;;
57643;SDS011;43474;46.510;6.686;2023-04-03T08:17:47;312.67;;;297.92;;
57643;SDS011;43474;46.510;6.686;2023-04-03T08:20:13;303.20;;;289.20;;
57643;SDS011;43474;46.510;6.686;2023-04-03T08:22:39;320.58;;;305.23;;
57643;SDS011;43474;46.510;6.686;2023-04-03T08:25:05;315.63;;;300.85;;
57643;SDS011;43474;46.510;6.686;2023-04-03T08:27:31;311.52;;;296.80;;
57643;SDS011;43474;46.510;6.686;2023-04-03T08:29:56;286.25;;;273.15;;
57643;SDS011;43474;46.510;6.686;2023-04-03T08:32:22;294.55;;;280.88;;
57643;SDS011;43474;46.510;6.686;2023-04-03T08:34:48;313.15;;;298.70;;
57643;SDS011;43474;46.510;6.686;2023-04-03T08:37:14;308.38;;;294.10;;
57643;SDS011;43474;46.510;6.686;2023-04-03T08:39:41;296.67;;;283.13;;
57643;SDS011;43474;46.510;6.686;2023-04-03T08:42:16;304.67;;;290.60;;
57643;SDS011;43474;46.510;6.686;2023-04-03T08:45:05;293.13;;;279.58;;
57643;SDS011;43474;46.510;6.686;2023-04-03T08:47:38;298.00;;;284.40;;
57643;SDS011;43474;46.510;6.686;2023-04-03T08:50:15;280.08;;;267.25;;
57643;SDS011;43474;46.510;6.686;2023-04-03T08:52:47;297.60;;;283.52;;
57643;SDS011;43474;46.510;6.686;2023-04-03T08:58:11;278.17;;;265.40;;
57643;SDS011;43474;46.510;6.686;2023-04-03T09:00:46;275.55;;;262.65;;
57643;SDS011;43474;46.510;6.686;2023-04-03T09:03:15;283.40;;;270.17;;
57643;SDS011;43474;46.510;6.686;2023-04-03T09:08:30;238.27;;;227.38;;
57643;SDS011;43474;46.510;6.686;2023-04-03T09:10:59;249.65;;;238.10;;
57643;SDS011;43474;46.510;6.686;2023-04-03T09:22:16;244.88;;;233.75;;
57643;SDS011;43474;46.510;6.686;2023-04-03T09:24:45;208.48;;;198.90;;
57643;SDS011;43474;46.510;6.686;2023-04-03T09:27:15;220.48;;;210.30;;
57643;SDS011;43474;46.510;6.686;2023-04-03T09:29:41;204.15;;;194.73;;
57643;SDS011;43474;46.510;6.686;2023-04-03T09:34:54;224.40;;;214.05;;
57643;SDS011;43474;46.510;6.686;2023-04-03T09:37:37;189.25;;;180.70;;
57643;SDS011;43474;46.510;6.686;2023-04-03T09:40:04;230.68;;;220.02;;
57643;SDS011;43474;46.510;6.686;2023-04-03T09:42:31;213.02;;;203.23;;
57643;SDS011;43474;46.510;6.686;2023-04-03T09:44:59;191.50;;;182.82;;
57643;SDS011;43474;46.510;6.686;2023-04-03T09:52:38;144.50;;;137.73;;
57643;SDS011;43474;46.510;6.686;2023-04-03T09:55:19;133.57;;;127.50;;
57643;SDS011;43474;46.510;6.686;2023-04-03T09:57:47;120.45;;;114.97;;
57643;SDS011;43474;46.510;6.686;2023-04-03T10:00:23;141.18;;;134.75;;
57643;SDS011;43474;46.510;6.686;2023-04-03T10:02:54;102.60;;;97.95;;
57643;SDS011;43474;46.510;6.686;2023-04-03T10:05:33;71.57;;;68.35;;
57643;SDS011;43474;46.510;6.686;2023-04-03T10:10:39;61.75;;;58.80;;
57643;SDS011;43474;46.510;6.686;2023-04-03T10:13:07;96.65;;;92.32;;
57643;SDS011;43474;46.510;6.686;2023-04-03T10:15:41;90.13;;;85.88;;
57643;SDS011;43474;46.510;6.686;2023-04-03T10:21:14;55.50;;;53.08;;
57643;SDS011;43474;46.510;6.686;2023-04-03T10:24:00;60.55;;;57.85;;
57643;SDS011;43474;46.510;6.686;2023-04-03T10:26:56;58.13;;;55.47;;
57643;SDS011;43474;46.510;6.686;2023-04-03T10:32:45;76.60;;;73.18;;
57643;SDS011;43474;46.510;6.686;2023-04-03T10:35:36;64.00;;;60.90;;
57643;SDS011;43474;46.510;6.686;2023-04-03T10:38:15;54.55;;;52.05;;
57643;SDS011;43474;46.510;6.686;2023-04-03T10:40:57;35.13;;;33.42;;
57643;SDS011;43474;46.510;6.686;2023-04-03T10:43:36;33.35;;;31.65;;
57643;SDS011;43474;46.510;6.686;2023-04-03T10:46:15;39.15;;;37.25;;
57643;SDS011;43474;46.510;6.686;2023-04-03T10:51:43;21.00;;;19.90;;
57643;SDS011;43474;46.510;6.686;2023-04-03T10:54:12;30.35;;;28.85;;
57643;SDS011;43474;46.510;6.686;2023-04-03T10:56:53;25.52;;;24.23;;
57643;SDS011;43474;46.510;6.686;2023-04-03T10:59:25;17.85;;;16.95;;
57643;SDS011;43474;46.510;6.686;2023-04-03T11:02:04;28.65;;;26.80;;
57643;SDS011;43474;46.510;6.686;2023-04-03T11:04:37;22.98;;;21.83;;
57643;SDS011;43474;46.510;6.686;2023-04-03T11:07:19;15.85;;;14.95;;
57643;SDS011;43474;46.510;6.686;2023-04-03T11:09:48;21.77;;;20.63;;
57643;SDS011;43474;46.510;6.686;2023-04-03T11:14:50;18.02;;;17.10;;
57643;SDS011;43474;46.510;6.686;2023-04-03T11:22:43;14.13;;;13.27;;
57643;SDS011;43474;46.510;6.686;2023-04-03T11:25:24;12.45;;;11.75;;
57643;SDS011;43474;46.510;6.686;2023-04-03T11:27:54;13.68;;;12.82;;
57643;SDS011;43474;46.510;6.686;2023-04-03T11:30:35;13.50;;;12.70;;
57643;SDS011;43474;46.510;6.686;2023-04-03T11:33:05;15.02;;;14.13;;
57643;SDS011;43474;46.510;6.686;2023-04-03T11:35:37;19.98;;;18.90;;
57643;SDS011;43474;46.510;6.686;2023-04-03T11:38:10;20.25;;;19.02;;
57643;SDS011;43474;46.510;6.686;2023-04-03T11:40:45;21.30;;;20.17;;
57643;SDS011;43474;46.510;6.686;2023-04-03T11:43:22;17.23;;;16.33;;
57643;SDS011;43474;46.510;6.686;2023-04-03T11:45:52;15.40;;;14.60;;
57643;SDS011;43474;46.510;6.686;2023-04-03T11:51:39;17.42;;;16.52;;
57643;SDS011;43474;46.510;6.686;2023-04-03T11:53:42;18.60;;;17.25;;
57643;SDS011;43474;46.510;6.686;2023-04-03T12:01:51;14.25;;;13.45;;
57643;SDS011;43474;46.510;6.686;2023-04-03T12:04:26;14.13;;;13.20;;
57643;SDS011;43474;46.510;6.686;2023-04-03T12:06:54;9.38;;;8.73;;
57643;SDS011;43474;46.510;6.686;2023-04-03T12:09:34;12.88;;;11.77;;
57643;SDS011;43474;46.510;6.686;2023-04-03T12:12:30;15.35;;;14.32;;
57643;SDS011;43474;46.510;6.686;2023-04-03T12:15:11;9.40;;;8.82;;
57643;SDS011;43474;46.510;6.686;2023-04-03T12:17:48;11.60;;;11.00;;
57643;SDS011;43474;46.510;6.686;2023-04-03T12:25:51;16.63;;;15.60;;
57643;SDS011;43474;46.510;6.686;2023-04-03T12:28:24;10.75;;;10.15;;
57643;SDS011;43474;46.510;6.686;2023-04-03T12:30:49;16.15;;;15.15;;
57643;SDS011;43474;46.510;6.686;2023-04-03T12:33:20;11.75;;;10.95;;
57643;SDS011;43474;46.510;6.686;2023-04-03T12:35:57;10.43;;;9.73;;
57643;SDS011;43474;46.510;6.686;2023-04-03T12:43:55;16.60;;;15.50;;
57643;SDS011;43474;46.510;6.686;2023-04-03T12:46:35;11.27;;;10.55;;
57643;SDS011;43474;46.510;6.686;2023-04-03T12:49:14;21.00;;;19.48;;
57643;SDS011;43474;46.510;6.686;2023-04-03T12:51:49;10.38;;;9.68;;
57643;SDS011;43474;46.510;6.686;2023-04-03T12:54:32;10.70;;;10.02;;
57643;SDS011;43474;46.510;6.686;2023-04-03T12:57:20;14.73;;;13.43;;
57643;SDS011;43474;46.510;6.686;2023-04-03T12:59:50;10.93;;;10.23;;
57643;SDS011;43474;46.510;6.686;2023-04-03T13:04:59;11.55;;;10.85;;
57643;SDS011;43474;46.510;6.686;2023-04-03T13:07:35;9.63;;;8.93;;
57643;SDS011;43474;46.510;6.686;2023-04-03T13:12:33;13.50;;;12.48;;
57643;SDS011;43474;46.510;6.686;2023-04-03T13:15:01;10.93;;;10.13;;
57643;SDS011;43474;46.510;6.686;2023-04-03T13:17:38;12.02;;;11.25;;
57643;SDS011;43474;46.510;6.686;2023-04-03T13:20:14;22.05;;;20.80;;
57643;SDS011;43474;46.510;6.686;2023-04-03T13:23:02;9.98;;;9.18;;
57643;SDS011;43474;46.510;6.686;2023-04-03T13:25:34;9.77;;;9.07;;
57643;SDS011;43474;46.510;6.686;2023-04-03T13:28:04;9.38;;;8.77;;
57643;SDS011;43474;46.510;6.686;2023-04-03T13:30:36;9.52;;;8.82;;
57643;SDS011;43474;46.510;6.686;2023-04-03T13:33:06;11.23;;;10.43;;
57643;SDS011;43474;46.510;6.686;2023-04-03T13:35:46;10.15;;;9.45;;
57643;SDS011;43474;46.510;6.686;2023-04-03T13:40:51;10.15;;;9.45;;
57643;SDS011;43474;46.510;6.686;2023-04-03T13:43:32;13.45;;;12.55;;
57643;SDS011;43474;46.510;6.686;2023-04-03T13:46:02;13.00;;;12.10;;
57643;SDS011;43474;46.510;6.686;2023-04-03T13:48:38;11.38;;;10.65;;
57643;SDS011;43474;46.510;6.686;2023-04-03T13:53:42;9.80;;;9.10;;
57643;SDS011;43474;46.510;6.686;2023-04-03T13:56:18;12.10;;;10.95;;
57643;SDS011;43474;46.510;6.686;2023-04-03T13:59:33;11.35;;;10.63;;
57643;SDS011;43474;46.510;6.686;2023-04-03T14:01:45;11.85;;;11.05;;
57643;SDS011;43474;46.510;6.686;2023-04-03T14:04:19;10.90;;;10.10;;
57643;SDS011;43474;46.510;6.686;2023-04-03T14:06:48;12.85;;;11.95;;
57643;SDS011;43474;46.510;6.686;2023-04-03T14:09:14;21.48;;;20.33;;
57643;SDS011;43474;46.510;6.686;2023-04-03T14:11:42;14.48;;;13.57;;
57643;SDS011;43474;46.510;6.686;2023-04-03T14:14:19;13.90;;;12.80;;
57643;SDS011;43474;46.510;6.686;2023-04-03T14:16:51;17.08;;;16.08;;
57643;SDS011;43474;46.510;6.686;2023-04-03T14:19:40;17.05;;;15.88;;
57643;SDS011;43474;46.510;6.686;2023-04-03T14:22:17;10.15;;;9.45;;
57643;SDS011;43474;46.510;6.686;2023-04-03T14:24:47;14.85;;;13.75;;
57643;SDS011;43474;46.510;6.686;2023-04-03T14:27:16;12.10;;;11.20;;
57643;SDS011;43474;46.510;6.686;2023-04-03T14:29:45;13.05;;;12.05;;
57643;SDS011;43474;46.510;6.686;2023-04-03T14:32:12;14.70;;;13.80;;
57643;SDS011;43474;46.510;6.686;2023-04-03T14:34:41;11.98;;;11.07;;
57643;SDS011;43474;46.510;6.686;2023-04-03T14:37:12;11.77;;;10.98;;
57643;SDS011;43474;46.510;6.686;2023-04-03T14:39:40;21.10;;;19.75;;
57643;SDS011;43474;46.510;6.686;2023-04-03T14:42:10;17.95;;;16.98;;
57643;SDS011;43474;46.510;6.686;2023-04-03T14:44:37;15.23;;;14.10;;
57643;SDS011;43474;46.510;6.686;2023-04-03T14:47:03;17.23;;;16.00;;
57643;SDS011;43474;46.510;6.686;2023-04-03T14:49:29;13.27;;;12.48;;
57643;SDS011;43474;46.510;6.686;2023-04-03T14:51:55;74.72;;;63.38;;
57643;SDS011;43474;46.510;6.686;2023-04-03T14:54:21;13.90;;;13.10;;
57643;SDS011;43474;46.510;6.686;2023-04-03T14:56:53;17.58;;;16.58;;
57643;SDS011;43474;46.510;6.686;2023-04-03T14:59:20;12.70;;;11.70;;
57643;SDS011;43474;46.510;6.686;2023-04-03T15:01:47;13.35;;;12.15;;
57643;SDS011;43474;46.510;6.686;2023-04-03T15:04:13;23.88;;;22.38;;
57643;SDS011;43474;46.510;6.686;2023-04-03T15:06:44;13.07;;;12.32;;
57643;SDS011;43474;46.510;6.686;2023-04-03T15:09:17;17.40;;;16.25;;
57643;SDS011;43474;46.510;6.686;2023-04-03T15:11:46;13.25;;;12.35;;
57643;SDS011;43474;46.510;6.686;2023-04-03T15:14:12;13.18;;;12.27;;
57643;SDS011;43474;46.510;6.686;2023-04-03T15:16:38;13.63;;;12.63;;
57643;SDS011;43474;46.510;6.686;2023-04-03T15:19:04;15.82;;;14.70;;
57643;SDS011;43474;46.510;6.686;2023-04-03T15:21:29;14.23;;;13.23;;
57643;SDS011;43474;46.510;6.686;2023-04-03T15:23:56;20.77;;;19.13;;
57643;SDS011;43474;46.510;6.686;2023-04-03T15:26:22;15.30;;;14.45;;
57643;SDS011;43474;46.510;6.686;2023-04-03T15:28:47;12.38;;;11.60;;
57643;SDS011;43474;46.510;6.686;2023-04-03T15:31:13;17.17;;;16.08;;
57643;SDS011;43474;46.510;6.686;2023-04-03T15:33:39;12.48;;;11.68;;
57643;SDS011;43474;46.510;6.686;2023-04-03T15:36:05;11.85;;;11.15;;
57643;SDS011;43474;46.510;6.686;2023-04-03T15:38:30;13.65;;;12.75;;
57643;SDS011;43474;46.510;6.686;2023-04-03T15:40:56;13.90;;;13.00;;